createdAt,value
2023-11-30T00:12:15.875Z,98.54
2023-11-30T00:27:18.109Z,95.32
2023-11-30T00:42:20.205Z,97.99
2023-11-30T00:57:22.408Z,100.00
2023-11-30T01:12:28.195Z,99.54
2023-11-30T01:27:31.366Z,100.00
2023-11-30T01:42:33.397Z,100.00
2023-11-30T01:57:36.471Z,100.00
2023-11-30T02:12:38.695Z,100.00
2023-11-30T02:27:40.757Z,100.00
2023-11-30T02:42:42.723Z,100.00
2023-11-30T02:57:44.708Z,100.00
2023-11-30T03:12:47.036Z,100.00
2023-11-30T03:27:49.107Z,98.82
2023-11-30T03:42:51.093Z,97.40
2023-11-30T03:57:53.115Z,97.55
2023-11-30T04:12:55.707Z,95.95
2023-11-30T04:27:57.758Z,99.60
2023-11-30T04:42:59.917Z,96.46
2023-11-30T04:58:04.664Z,95.71
2023-11-30T05:13:06.946Z,91.32
2023-11-30T05:28:08.992Z,94.15
2023-11-30T05:43:10.970Z,91.13
2023-11-30T05:58:13.033Z,89.10
2023-11-30T06:13:17.148Z,89.40
2023-11-30T06:28:21.189Z,90.59
2023-11-30T06:43:23.718Z,86.43
2023-11-30T06:58:25.726Z,76.78
2023-11-30T07:13:28.050Z,68.93
2023-11-30T07:28:30.120Z,62.09
2023-11-30T07:43:36.167Z,56.60
2023-11-30T07:59:14.402Z,53.93
2023-11-30T08:14:20.955Z,60.03
2023-11-30T08:29:23.369Z,53.66
2023-11-30T08:44:26.092Z,53.39
2023-11-30T08:59:28.257Z,49.97
2023-11-30T09:14:32.400Z,49.96
2023-11-30T09:29:37.893Z,49.10
2023-11-30T09:44:40.104Z,48.79
2023-11-30T09:59:42.551Z,47.62
2023-11-30T10:14:45.181Z,45.13
2023-11-30T10:29:49.998Z,46.25
2023-11-30T10:44:54.944Z,44.81
2023-11-30T11:00:01.477Z,43.86
2023-11-30T11:15:14.401Z,42.18
2023-11-30T11:30:18.704Z,44.02
2023-11-30T11:45:22.567Z,44.92
2023-11-30T12:00:26.093Z,42.70
2023-11-30T12:15:30.945Z,40.91
2023-11-30T12:30:34.112Z,43.42
2023-11-30T12:45:36.339Z,48.72
2023-11-30T13:00:38.551Z,51.06
2023-11-30T13:15:42.151Z,53.13
2023-11-30T13:30:44.308Z,55.81
2023-11-30T13:45:51.269Z,57.37
2023-11-30T14:00:53.801Z,56.12
2023-11-30T14:15:56.167Z,57.45
2023-11-30T14:30:59.126Z,59.65
2023-11-30T14:46:01.982Z,62.88
2023-11-30T15:01:04.492Z,65.63
2023-11-30T15:16:06.933Z,68.08
2023-11-30T15:31:46.787Z,68.91
2023-11-30T15:46:49.011Z,69.59
2023-11-30T16:01:51.207Z,69.68
2023-11-30T16:16:55.111Z,69.15
2023-11-30T16:32:38.789Z,68.64
2023-11-30T16:47:41.091Z,69.14
2023-11-30T17:02:43.328Z,69.53
2023-11-30T17:17:49.707Z,69.60
2023-11-30T17:32:52.553Z,67.25
2023-11-30T17:47:56.308Z,67.46
2023-11-30T18:18:19.964Z,67.17
2023-11-30T18:33:22.640Z,68.45
2023-11-30T18:48:24.714Z,70.18
2023-11-30T19:03:26.816Z,71.50
2023-11-30T19:18:29.691Z,72.07
2023-11-30T19:33:32.982Z,72.48
2023-11-30T19:48:35.089Z,72.97
2023-11-30T20:03:37.655Z,73.93
2023-11-30T20:18:40.140Z,76.26
2023-11-30T20:33:42.431Z,78.52
2023-11-30T20:48:44.875Z,81.59
2023-11-30T21:03:47.097Z,84.42
2023-11-30T21:18:51.670Z,85.57
2023-11-30T21:33:53.702Z,86.97
2023-11-30T21:48:55.860Z,87.68
2023-11-30T22:03:58.059Z,86.35
2023-11-30T22:19:01.312Z,86.54
2023-11-30T22:34:03.403Z,90.43
2023-11-30T22:49:05.573Z,91.16
2023-11-30T23:04:07.767Z,90.86
2023-11-30T23:19:10.218Z,91.97
2023-11-30T23:34:12.806Z,94.48
2023-11-30T23:49:14.857Z,95.95
